Time;durP1;ratioP1;P1;durP2;ratioP2;P2;SDS_P1;SDS_P2;PMS_P1;PMS_P2;Temp;Humidity;BMP_temperature;BMP_pressure;BME280_temperature;BME280_humidity;BME280_pressure;Samples;Min_cycle;Max_cycle;Signal;HPM_P1;HPM_P2
2023/11/10 00:02:08;;;;;;;;;9.25;8.50;;;;;15.39;65.89;101417.72;146618;606;46013;-73
2023/11/10 00:05:12;;;;;;;;;7.50;7.50;;;;;15.33;64.82;101410.53;146620;609;46020;-73
2023/11/10 00:08:13;;;;;;;;;9.00;9.00;;;;;15.32;65.00;101415.69;146613;662;47015;-76
2023/11/10 00:11:16;;;;;;;;;8.50;7.25;;;;;15.30;65.24;101406.91;146609;628;46021;-78
2023/11/10 00:14:15;;;;;;;;;8.75;7.00;;;;;15.29;65.60;101395.53;146619;572;46016;-78
2023/11/10 00:17:21;;;;;;;;;7.25;6.25;;;;;15.28;64.71;101398.09;146617;738;46021;-73
2023/11/10 00:20:36;;;;;;;;;9.00;6.75;;;;;15.30;64.59;101396.47;146614;591;47012;-73
2023/11/10 00:23:33;;;;;;;;;7.00;6.00;;;;;15.34;65.35;101390.53;146620;645;47010;-73
2023/11/10 00:26:36;;;;;;;;;7.50;5.50;;;;;15.36;64.69;101388.88;146619;689;47012;-73
2023/11/10 00:29:52;;;;;;;;;7.00;7.00;;;;;13.54;63.73;101068.69;146620;582;46010;-76
2023/11/10 00:32:49;;;;;;;;;6.75;5.25;;;;;15.42;65.59;101390.03;146615;648;46915;-75
2023/11/10 00:35:48;;;;;;;;;6.25;5.25;;;;;15.47;65.32;101388.47;146621;629;45586;-75
2023/11/10 00:39:02;;;;;;;;;4.00;4.00;;;;;13.72;63.61;101076.44;146610;677;48016;-73
2023/11/10 00:42:11;;;;;;;;;6.25;6.00;;;;;15.63;64.81;101394.34;146611;684;46020;-77
2023/11/10 00:45:13;;;;;;;;;5.00;5.00;;;;;15.66;64.08;101394.47;146618;569;46016;-77
2023/11/10 00:48:12;;;;;;;;;5.50;5.50;;;;;15.73;65.16;101406.09;146623;566;46010;-77
2023/11/10 00:51:22;;;;;;;;;9.00;6.25;;;;;15.73;65.05;101400.88;146617;636;46025;-75
2023/11/10 00:54:21;;;;;;;;;9.50;6.75;;;;;15.69;65.51;101397.25;146621;569;46021;-74
2023/11/10 00:57:19;;;;;;;;;5.50;5.25;;;;;15.63;65.54;101400.47;146619;579;46012;-74
2023/11/10 01:00:41;;;;;;;;;6.00;6.00;;;;;15.59;66.94;101390.72;146621;566;46010;-74
2023/11/10 01:03:43;;;;;;;;;6.75;5.50;;;;;15.56;66.48;101390.59;146620;734;46016;-74
2023/11/10 01:06:37;;;;;;;;;5.75;4.00;;;;;15.57;67.07;101386.25;146620;572;46021;-75
2023/11/10 01:09:29;;;;;;;;;6.00;5.75;;;;;15.57;66.85;101376.69;146612;576;46017;-74
2023/11/10 01:12:45;;;;;;;;;4.50;4.50;;;;;15.60;65.94;101370.69;146613;576;46010;-74
2023/11/10 01:15:41;;;;;;;;;5.00;3.00;;;;;15.60;67.43;101371.56;146616;626;46016;-74
2023/11/10 01:18:59;;;;;;;;;5.50;5.50;;;;;15.27;65.31;101331.91;146618;609;46020;-76
2023/11/10 01:22:04;;;;;;;;;4.50;3.50;;;;;13.84;65.24;101056.12;146610;579;47016;-76
2023/11/10 01:25:03;;;;;;;;;5.50;4.50;;;;;15.73;66.60;101378.22;146620;596;46020;-75
2023/11/10 01:28:07;;;;;;;;;5.00;3.00;;;;;15.75;66.43;101373.97;146616;588;46016;-75
2023/11/10 01:31:15;;;;;;;;;4.00;4.00;;;;;13.97;65.47;101065.34;146620;613;46032;-75
2023/11/10 01:34:24;;;;;;;;;6.00;5.25;;;;;15.76;66.34;101380.97;146616;677;47012;-76
2023/11/10 01:37:41;;;;;;;;;6.25;4.50;;;;;15.73;65.23;101366.88;146621;576;46020;-75
2023/11/10 01:40:42;;;;;;;;;4.00;4.00;;;;;15.79;66.46;101374.97;146613;573;46918;-77
2023/11/10 01:43:41;;;;;;;;;4.25;4.25;;;;;14.94;66.02;101235.62;146612;575;46020;-85
2023/11/10 01:46:49;;;;;;;;;4.75;3.75;;;;;15.70;65.00;101380.75;146617;610;46917;-73
2023/11/10 01:49:45;;;;;;;;;3.25;3.25;;;;;15.66;66.70;101381.41;146620;684;46020;-73
2023/11/10 01:52:41;;;;;;;;;4.25;4.00;;;;;15.65;66.90;101380.50;146615;571;47016;-74
2023/11/10 01:55:43;;;;;;;;;4.00;4.00;;;;;15.67;66.66;101378.91;146621;688;46010;-73
2023/11/10 01:58:49;;;;;;;;;3.50;3.25;;;;;15.68;67.16;101374.56;146615;627;47015;-73
2023/11/10 02:01:48;;;;;;;;;5.25;5.25;;;;;15.68;67.59;101377.19;146619;578;47010;-74
2023/11/10 02:04:51;;;;;;;;;3.00;3.00;;;;;15.65;66.99;101371.78;146617;565;46016;-74
2023/11/10 02:07:51;;;;;;;;;7.50;7.50;;;;;15.62;67.06;101372.53;146622;570;46021;-72
2023/11/10 02:10:48;;;;;;;;;5.50;5.00;;;;;15.63;67.37;101374.31;146616;632;46012;-73
2023/11/10 02:13:43;;;;;;;;;9.00;6.50;;;;;15.64;68.02;101373.50;146612;597;46020;-73
2023/11/10 02:16:36;;;;;;;;;5.50;5.50;;;;;15.65;67.87;101374.41;146612;731;46917;-73
2023/11/10 02:19:38;;;;;;;;;5.25;5.25;;;;;15.63;66.61;101369.09;146619;565;46029;-73
2023/11/10 02:22:52;;;;;;;;;6.50;5.50;;;;;15.64;68.10;101375.25;146617;573;46016;-73
2023/11/10 02:25:50;;;;;;;;;5.75;4.00;;;;;15.62;67.64;101372.53;146618;660;46020;-73
2023/11/10 02:28:45;;;;;;;;;6.00;5.50;;;;;15.61;68.27;101372.50;146613;642;47016;-73
2023/11/10 02:32:00;;;;;;;;;6.00;5.25;;;;;15.58;67.44;101362.81;146620;579;46021;-73
2023/11/10 02:35:11;;;;;;;;;7.75;7.25;;;;;15.55;67.17;101361.78;146616;620;47012;-73
2023/11/10 02:38:43;;;;;;;;;;;;;;;;;;;;;
2023/11/10 02:41:36;;;;;;;;;5.00;5.00;;;;;15.55;67.97;101351.34;146617;695;46016;-74
2023/11/10 02:44:40;;;;;;;;;6.50;5.50;;;;;15.57;67.34;101345.31;146632;633;47010;-74
2023/11/10 02:47:43;;;;;;;;;5.00;5.00;;;;;15.58;68.45;101352.34;146614;613;46016;-71
2023/11/10 02:50:50;;;;;;;;;7.00;7.00;;;;;15.59;68.17;101342.78;146620;682;46020;-71
2023/11/10 02:53:49;;;;;;;;;5.00;5.00;;;;;15.59;67.71;101332.31;146610;572;49017;-71
2023/11/10 02:56:47;;;;;;;;;4.50;4.50;;;;;15.57;68.35;101340.09;146622;577;46010;-70
2023/11/10 02:59:39;;;;;;;;;4.50;4.50;;;;;15.55;68.09;101328.69;146615;593;47012;-72
2023/11/10 03:02:43;;;;;;;;;7.25;5.50;;;;;15.52;67.63;101330.31;146622;591;46020;-71
2023/11/10 03:05:39;;;;;;;;;6.00;4.25;;;;;15.49;68.70;101331.06;146615;585;46016;-77
2023/11/10 03:08:39;;;;;;;;;5.00;5.00;;;;;15.39;68.62;101328.87;146618;712;46021;-77
2023/11/10 03:11:50;;;;;;;;;8.00;5.00;;;;;15.28;68.83;101331.06;146613;605;48012;-75
2023/11/10 03:14:57;;;;;;;;;6.00;6.00;;;;;15.18;67.42;101321.06;146614;609;47011;-76
2023/11/10 03:18:03;;;;;;;;;6.25;4.25;;;;;15.12;68.23;101321.69;146617;650;46916;-74
2023/11/10 03:21:23;;;;;;;;;4.00;4.00;;;;;14.01;67.39;101128.13;146617;570;48010;-76
2023/11/10 03:24:37;;;;;;;;;5.50;3.75;;;;;14.17;68.77;101168.78;146616;685;48012;-76
2023/11/10 03:27:41;;;;;;;;;6.00;4.50;;;;;14.94;68.79;101318.28;146614;563;46020;-75
2023/11/10 03:30:56;;;;;;;;;7.25;6.50;;;;;13.12;68.47;101008.62;146618;615;46013;-77
2023/11/10 03:33:50;;;;;;;;;5.00;5.00;;;;;14.86;69.75;101320.59;146617;658;46020;-76
2023/11/10 03:36:48;;;;;;;;;7.25;5.25;;;;;14.84;70.17;101326.56;146616;666;47012;-77
2023/11/10 03:39:53;;;;;;;;;;;;;;;;;;;;;
2023/11/10 03:42:52;;;;;;;;;6.50;5.25;;;;;14.68;70.40;101319.78;146617;659;47012;-77
2023/11/10 03:46:10;;;;;;;;;6.50;6.50;;;;;12.86;68.63;101018.69;146615;647;46010;-76
2023/11/10 03:49:10;;;;;;;;;4.75;4.75;;;;;14.59;70.15;101325.47;146617;596;47014;-77
2023/11/10 03:52:14;;;;;;;;;5.00;5.00;;;;;14.61;70.43;101321.22;146619;584;47011;-76
2023/11/10 03:55:11;;;;;;;;;6.00;5.00;;;;;14.61;70.55;101321.22;146612;639;46016;-76
2023/11/10 03:58:03;;;;;;;;;6.50;5.75;;;;;14.61;70.62;101328.13;146621;682;47010;-76
2023/11/10 04:01:17;;;;;;;;;;;;;;;;;;;;;
2023/11/10 04:04:30;;;;;;;;;8.00;6.00;;;;;12.75;68.91;101008.62;146619;584;46022;-77
2023/11/10 04:07:32;;;;;;;;;8.25;5.75;;;;;14.51;70.02;101329.44;146612;607;47012;-74
2023/11/10 04:10:48;;;;;;;;;6.50;6.25;;;;;12.55;69.65;100994.66;146618;684;46020;-74
2023/11/10 04:13:50;;;;;;;;;8.00;7.50;;;;;12.39;70.09;100985.25;146617;632;46012;-71
2023/11/10 04:16:48;;;;;;;;;8.00;7.25;;;;;14.33;70.70;101337.31;146615;570;46010;-76
2023/11/10 04:19:40;;;;;;;;;5.25;5.25;;;;;14.30;71.34;101332.84;146618;570;46012;-74
2023/11/10 04:22:41;;;;;;;;;7.75;6.75;;;;;14.29;71.21;101333.66;146620;580;46010;-71
2023/11/10 04:25:44;;;;;;;;;7.00;7.00;;;;;14.25;70.68;101323.91;146618;598;46016;-75
2023/11/10 04:28:48;;;;;;;;;9.00;5.75;;;;;14.21;71.77;101327.22;146616;583;47010;-76
2023/11/10 04:31:56;;;;;;;;;8.00;7.50;;;;;12.15;70.98;100974.53;146615;563;46016;-74
2023/11/10 04:34:54;;;;;;;;;6.25;6.25;;;;;14.13;72.21;101318.13;146618;620;47010;-74
2023/11/10 04:38:10;;;;;;;;;6.75;6.00;;;;;14.08;72.42;101314.41;146615;591;46916;-75
2023/11/10 04:41:08;;;;;;;;;9.50;7.00;;;;;14.00;72.84;101315.78;146622;639;46020;-73
2023/11/10 04:44:04;;;;;;;;;10.25;9.50;;;;;14.00;72.58;101319.28;146613;620;46017;-77
2023/11/10 04:47:15;;;;;;;;;8.25;8.00;;;;;14.04;72.21;101318.59;146611;650;47012;-77
2023/11/10 04:50:19;;;;;;;;;5.25;5.25;;;;;14.03;72.48;101315.94;146612;587;47012;-77
2023/11/10 04:53:41;;;;;;;;;;;;;;;;;;;;;
2023/11/10 04:57:02;;;;;;;;;6.00;6.00;;;;;12.35;70.54;101023.22;146616;596;49016;-77
2023/11/10 04:59:58;;;;;;;;;6.25;6.25;;;;;14.02;71.94;101308.94;146619;569;46021;-78
2023/11/10 05:03:01;;;;;;;;;10.25;6.75;;;;;14.01;71.60;101302.81;146615;565;46016;-77
2023/11/10 05:06:06;;;;;;;;;7.75;7.00;;;;;14.02;70.66;101296.78;146617;570;46011;-77
2023/11/10 05:09:08;;;;;;;;;9.50;7.50;;;;;14.07;71.85;101299.59;146616;574;46027;-74
2023/11/10 05:12:10;;;;;;;;;10.25;8.25;;;;;14.07;71.86;101303.09;146618;572;47010;-75
2023/11/10 05:15:19;;;;;;;;;10.50;8.75;;;;;14.06;70.67;101303.03;146618;642;46915;-75
2023/11/10 05:18:33;;;;;;;;;;;;;;;;;;;;;
2023/11/10 05:21:55;;;;;;;;;6.75;6.75;;;;;12.30;69.89;101000.41;146616;585;46017;-71
2023/11/10 05:24:50;;;;;;;;;7.00;6.50;;;;;13.95;71.60;101297.31;146621;566;47010;-72
2023/11/10 05:27:50;;;;;;;;;7.00;6.00;;;;;13.95;71.91;101296.41;146616;583;46034;-73
2023/11/10 05:31:14;;;;;;;;;7.50;7.00;;;;;13.96;71.62;101298.22;146619;579;46010;-79
2023/11/10 05:34:12;;;;;;;;;17.50;15.25;;;;;13.97;71.42;101313.94;146615;569;46915;-78
2023/11/10 05:37:14;;;;;;;;;13.25;11.25;;;;;13.98;71.79;101313.09;146611;651;46020;-78
2023/11/10 05:40:29;;;;;;;;;9.50;8.25;;;;;12.18;70.63;100986.00;146608;642;47012;-79
2023/11/10 05:43:26;;;;;;;;;10.00;8.00;;;;;14.30;74.17;101313.72;146619;601;46023;-76
2023/11/10 05:46:26;;;;;;;;;8.50;8.25;;;;;14.68;75.12;101319.78;146613;584;47014;-74
2023/11/10 05:49:29;;;;;;;;;9.75;7.00;;;;;15.07;71.86;101314.47;146612;656;47012;-73
2023/11/10 05:52:31;;;;;;;;;11.75;9.50;;;;;15.41;72.22;101295.88;146615;644;46034;-74
2023/11/10 05:55:44;;;;;;;;;8.00;6.75;;;;;16.08;70.04;101308.16;146621;587;46022;-79
2023/11/10 05:58:53;;;;;;;;;5.75;4.50;;;;;15.06;68.66;100989.75;146616;640;46012;-71
2023/11/10 06:01:51;;;;;;;;;7.25;6.00;;;;;17.55;65.48;101308.09;146621;582;46010;-71
2023/11/10 06:04:48;;;;;;;;;8.00;5.75;;;;;17.93;63.45;101314.56;146615;576;47013;-71
2023/11/10 06:07:43;;;;;;;;;7.50;6.50;;;;;18.13;63.57;101306.41;146619;651;47034;-72
2023/11/10 06:10:40;;;;;;;;;9.00;6.00;;;;;18.45;62.90;101302.09;146614;569;47016;-71
2023/11/10 06:14:11;;;;;;;;;5.75;5.75;;;;;18.90;59.83;101296.34;146616;691;47023;-71
2023/11/10 06:17:10;;;;;;;;;4.75;4.50;;;;;19.19;58.47;101297.13;146616;575;46033;-71
2023/11/10 06:20:26;;;;;;;;;7.75;5.00;;;;;19.47;58.61;101290.78;146605;628;46010;-73
2023/11/10 06:23:18;;;;;;;;;6.75;6.50;;;;;19.81;57.47;101275.78;146614;569;47014;-71
2023/11/10 06:26:20;;;;;;;;;6.50;5.00;;;;;19.99;56.82;101275.31;146618;730;46020;-71
2023/11/10 06:29:27;;;;;;;;;14.25;11.75;;;;;19.98;56.88;101273.53;146618;627;46014;-71
2023/11/10 06:32:34;;;;;;;;;8.25;8.25;;;;;20.12;57.54;101264.19;146614;564;46020;-71
2023/11/10 06:35:40;;;;;;;;;10.25;8.00;;;;;20.43;56.83;101272.72;146617;591;46914;-73
2023/11/10 06:38:37;;;;;;;;;9.50;8.50;;;;;20.68;54.97;101266.19;146618;599;46020;-72
2023/11/10 06:41:43;;;;;;;;;5.50;5.50;;;;;20.80;55.28;101262.91;146618;614;46016;-71
2023/11/10 06:44:44;;;;;;;;;10.00;6.75;;;;;20.75;55.22;101262.84;146619;699;48021;-72
2023/11/10 06:47:48;;;;;;;;;7.00;6.75;;;;;20.65;54.50;101263.50;146616;638;46012;-79
2023/11/10 06:50:47;;;;;;;;;8.00;6.25;;;;;20.49;54.86;101267.56;146615;641;46020;-82
2023/11/10 06:54:05;;;;;;;;;7.50;7.00;;;;;20.34;55.88;101278.66;146618;563;46012;-82
2023/11/10 06:57:09;;;;;;;;;10.25;10.00;;;;;20.15;54.58;101271.25;146620;569;46011;-82
2023/11/10 07:00:05;;;;;;;;;10.50;9.50;;;;;19.99;54.13;101267.41;146609;663;46016;-82
2023/11/10 07:03:22;;;;;;;;;;;;;;;;;;;;;
2023/11/10 07:06:32;;;;;;;;;7.00;7.00;;;;;19.79;55.73;101277.53;146615;620;46012;-83
2023/11/10 07:09:37;;;;;;;;;10.00;7.25;;;;;19.68;56.22;101286.91;146618;655;47010;-82
2023/11/10 07:12:41;;;;;;;;;10.25;9.75;;;;;19.64;56.39;101274.50;146616;699;46013;-82
2023/11/10 07:15:53;;;;;;;;;;;;;;;;;;;;;
2023/11/10 07:19:08;;;;;;;;;;;;;;;;;;;;;
2023/11/10 07:22:08;;;;;;;;;10.75;9.50;;;;;19.70;56.46;101282.56;146607;721;46020;-82
2023/11/10 07:25:03;;;;;;;;;11.00;11.00;;;;;19.78;56.19;101281.91;146613;708;46923;-82
2023/11/10 07:28:16;;;;;;;;;10.25;10.25;;;;;19.88;56.51;101279.47;146615;706;46021;-81
2023/11/10 07:31:19;;;;;;;;;10.50;10.50;;;;;19.94;57.07;101291.03;146610;586;46014;-82
2023/11/10 07:34:43;;;;;;;;;8.00;7.00;;;;;18.40;56.08;100996.50;146615;676;46021;-82
2023/11/10 07:37:55;;;;;;;;;14.00;10.50;;;;;18.42;55.81;101007.94;146614;639;47016;-82
2023/11/10 07:40:57;;;;;;;;;5.75;4.25;;;;;20.09;54.62;101274.66;146615;619;46010;-83
2023/11/10 07:44:05;;;;;;;;;2.33;2.00;;;;;19.19;53.69;101128.87;146619;615;46012;-87
2023/11/10 07:47:07;;;;;;;;;4.67;3.67;;;;;19.86;54.40;101270.66;146619;614;46010;-83
2023/11/10 07:49:59;;;;;;;;;2.00;1.00;;;;;19.74;54.40;101266.88;146615;572;46915;-84
2023/11/10 07:53:02;;;;;;;;;6.00;4.00;;;;;19.68;55.31;101268.47;146612;668;46020;-86
2023/11/10 07:56:04;;;;;;;;;;;;;;;;;;;;;
2023/11/10 07:58:58;;;;;;;;;6.50;6.00;;;;;19.02;55.00;101153.84;146614;598;47010;-84
2023/11/10 08:02:03;;;;;;;;;;;;;;;;;;;;;
2023/11/10 08:04:55;;;;;;;;;5.67;4.67;;;;;19.64;56.48;101257.00;146614;576;46915;-83
2023/11/10 08:07:55;;;;;;;;;6.33;4.67;;;;;19.64;55.03;101258.72;146618;614;46012;-84
2023/11/10 08:10:51;;;;;;;;;3.00;3.00;;;;;19.69;53.94;101250.13;146621;598;46013;-85
2023/11/10 08:13:44;;;;;;;;;3.00;3.00;;;;;19.77;53.76;101255.53;146620;635;46012;-86
2023/11/10 08:16:45;;;;;;;;;4.00;4.00;;;;;19.78;53.19;101255.59;146624;580;46020;-84
2023/11/10 08:19:48;;;;;;;;;2.33;2.33;;;;;19.69;52.86;101263.28;146618;576;46010;-86
2023/11/10 08:22:51;;;;;;;;;6.33;4.33;;;;;19.71;54.45;101266.81;146613;614;47010;-87
2023/11/10 08:25:52;;;;;;;;;5.33;4.67;;;;;19.86;53.20;101274.16;146621;599;46012;-87
2023/11/10 08:28:50;;;;;;;;;4.00;4.00;;;;;20.00;55.53;101288.53;146622;589;46020;-88
2023/11/10 08:31:45;;;;;;;;;3.00;2.67;;;;;20.15;54.20;101287.06;146612;668;46031;-86
2023/11/10 08:34:41;;;;;;;;;4.00;3.67;;;;;20.22;53.11;101279.34;146618;572;47021;-80
2023/11/10 08:37:41;;;;;;;;;4.67;4.67;;;;;20.24;53.42;101282.88;146619;573;46016;-84
2023/11/10 08:40:34;;;;;;;;;4.00;3.67;;;;;20.19;53.53;101274.00;146619;645;46021;-89
2023/11/10 08:43:33;;;;;;;;;3.00;3.00;;;;;20.11;54.40;101272.06;146618;609;46016;-81
2023/11/10 08:46:50;;;;;;;;;;;;;;;;;;;;;
2023/11/10 08:49:49;;;;;;;;;5.00;4.00;;;;;20.03;54.10;101271.88;146614;581;46920;-85
2023/11/10 08:52:47;;;;;;;;;5.00;5.00;;;;;19.96;54.87;101262.09;146613;674;46010;-84
2023/11/10 08:55:48;;;;;;;;;4.33;4.00;;;;;19.93;55.11;101281.31;146621;594;46013;-88
2023/11/10 08:58:46;;;;;;;;;8.67;4.67;;;;;19.97;55.07;101274.37;146619;639;46020;-87
2023/11/10 09:01:42;;;;;;;;;5.00;3.00;;;;;20.07;55.99;101272.00;146615;617;47015;-85
2023/11/10 09:04:52;;;;;;;;;5.00;5.00;;;;;20.15;55.23;101264.25;146624;579;46010;-83
2023/11/10 09:07:48;;;;;;;;;5.33;5.00;;;;;20.24;55.52;101268.81;146616;571;46917;-83
2023/11/10 09:10:52;;;;;;;;;6.33;5.00;;;;;20.22;55.38;101255.62;146623;588;46011;-83
2023/11/10 09:13:55;;;;;;;;;4.67;4.00;;;;;20.19;55.73;101271.37;146619;596;46016;-88
2023/11/10 09:16:55;;;;;;;;;5.00;4.00;;;;;20.26;56.06;101254.84;146618;564;46020;-86
2023/11/10 09:19:56;;;;;;;;;5.00;4.00;;;;;20.44;55.91;101245.53;146615;589;46917;-85
2023/11/10 09:23:00;;;;;;;;;7.00;6.33;;;;;20.45;55.73;101257.81;146613;633;46010;-91
2023/11/10 09:26:04;;;;;;;;;5.67;5.33;;;;;20.33;55.77;101274.28;146618;571;47012;-87
2023/11/10 09:29:15;;;;;;;;;7.67;6.00;;;;;20.16;56.14;101289.75;146620;580;46020;-84
2023/11/10 09:32:13;;;;;;;;;5.50;5.00;;;;;19.92;57.59;101279.56;146616;639;47012;-82
2023/11/10 09:35:11;;;;;;;;;5.67;5.33;;;;;19.70;58.59;101279.94;146622;600;46010;-79
2023/11/10 09:38:12;;;;;;;;;6.00;5.00;;;;;19.52;59.64;101276.00;146613;587;46016;-80
2023/11/10 09:41:08;;;;;;;;;9.00;8.00;;;;;19.33;60.83;101279.91;146606;573;47011;-82
2023/11/10 09:44:01;;;;;;;;;5.33;5.33;;;;;19.27;61.14;101273.63;146608;575;46012;-89
2023/11/10 09:47:05;;;;;;;;;;;;;;;;;;;;;
2023/11/10 09:50:18;;;;;;;;;7.33;5.67;;;;;19.29;61.98;101232.50;146605;575;46018;-81
2023/11/10 09:53:36;;;;;;;;;8.00;5.75;;;;;19.48;61.31;101228.56;146602;563;46020;-83
2023/11/10 09:56:40;;;;;;;;;9.75;7.25;;;;;19.62;60.76;101219.22;146604;570;47016;-85
2023/11/10 09:59:56;;;;;;;;;8.00;6.00;;;;;19.64;60.16;101217.53;146604;583;47020;-81
2023/11/10 10:03:04;;;;;;;;;7.25;7.00;;;;;19.66;60.66;101209.66;146601;580;47013;-81
2023/11/10 10:06:07;;;;;;;;;6.75;6.00;;;;;19.61;60.54;101218.31;146609;571;46020;-87
2023/11/10 10:09:01;;;;;;;;;5.00;5.00;;;;;19.57;59.92;101200.72;146605;609;46012;-88
2023/11/10 10:12:07;;;;;;;;;7.00;5.00;;;;;19.53;59.28;101182.19;146607;608;47010;-83
2023/11/10 10:15:12;;;;;;;;;6.00;6.00;;;;;19.47;59.63;101168.91;146603;580;47014;-84
2023/11/10 10:18:16;;;;;;;;;5.00;5.00;;;;;19.51;60.16;101154.97;146609;642;45031;-85
2023/11/10 10:21:13;;;;;;;;;6.25;4.75;;;;;19.53;59.55;101151.53;146602;721;47012;-81
2023/11/10 10:24:06;;;;;;;;;5.67;5.00;;;;;19.56;60.20;101132.28;146605;687;48011;-82
2023/11/10 10:27:01;;;;;;;;;4.67;4.67;;;;;19.58;60.38;101115.66;146605;673;48012;-83
2023/11/10 10:30:26;;;;;;;;;4.33;4.33;;;;;19.50;59.20;101105.84;146606;593;48020;-84
2023/11/10 10:33:31;;;;;;;;;2.75;2.75;;;;;19.41;59.29;101117.06;146599;636;47034;-79
2023/11/10 10:37:04;;;;;;;;;;;;;;;;;;;;;
2023/11/10 10:40:16;;;;;;;;;;;;;;;;;;;;;
2023/11/10 10:43:17;;;;;;;;;4.50;4.50;;;;;19.43;59.71;101094.31;146607;571;46012;-81
2023/11/10 10:46:22;;;;;;;;;4.00;4.00;;;;;19.41;59.63;101105.66;146608;570;46013;-80
2023/11/10 10:49:24;;;;;;;;;5.00;5.00;;;;;19.37;59.49;101105.56;146602;571;48010;-83
2023/11/10 10:53:00;;;;;;;;;4.00;4.00;;;;;18.32;59.74;100922.84;146604;676;46020;-84
2023/11/10 10:56:12;;;;;;;;;6.33;5.00;;;;;19.25;60.88;101084.31;146609;589;46026;-84
2023/11/10 10:59:17;;;;;;;;;5.00;4.75;;;;;19.12;61.10;101062.09;146606;595;46016;-81
2023/11/10 11:02:18;;;;;;;;;5.25;4.00;;;;;19.08;61.23;101054.13;146608;675;46010;-88
2023/11/10 11:05:43;;;;;;;;;5.00;5.00;;;;;19.00;60.99;101039.91;146600;563;46016;-85
2023/11/10 11:09:20;;;;;;;;;;;;;;;;;;;;;
2023/11/10 11:12:50;;;;;;;;;7.33;7.33;;;;;18.88;61.38;101062.47;146604;618;46016;-83
2023/11/10 11:16:36;;;;;;;;;6.50;6.50;;;;;18.90;60.27;101078.25;146607;699;47033;-82
2023/11/10 11:19:43;;;;;;;;;7.25;7.00;;;;;18.92;61.12;101073.94;146603;671;48033;-84
2023/11/10 11:23:13;;;;;;;;;6.00;6.00;;;;;17.40;60.25;100817.41;146603;663;46020;-80
2023/11/10 11:26:20;;;;;;;;;;;;;;;;;;;;;
2023/11/10 11:29:26;;;;;;;;;7.00;7.00;;;;;18.97;61.01;101084.53;146606;607;47018;-80
2023/11/10 11:32:37;;;;;;;;;6.67;6.67;;;;;18.96;60.15;101082.75;146603;605;46915;-82
2023/11/10 11:36:03;;;;;;;;;7.50;7.00;;;;;17.44;60.40;100795.66;146606;631;46021;-83
2023/11/10 11:38:58;;;;;;;;;7.00;6.25;;;;;18.93;61.37;101054.66;146603;619;46017;-80
2023/11/10 11:42:00;;;;;;;;;9.25;6.50;;;;;18.89;61.34;101050.22;146605;577;46020;-81
2023/11/10 11:45:13;;;;;;;;;;;;;;;;;;;;;
2023/11/10 11:48:26;;;;;;;;;7.00;6.00;;;;;18.78;62.77;101051.69;146606;710;46020;-85
2023/11/10 11:51:24;;;;;;;;;4.75;4.75;;;;;18.78;63.23;101049.06;146602;578;47032;-86
2023/11/10 11:54:29;;;;;;;;;5.50;5.50;;;;;18.77;63.64;101040.31;146605;692;46030;-84
2023/11/10 11:57:35;;;;;;;;;9.25;6.75;;;;;18.78;63.65;101047.31;146603;563;46016;-83
2023/11/10 12:00:28;;;;;;;;;4.33;4.33;;;;;18.72;63.30;101049.78;146604;605;46021;-83
2023/11/10 12:03:22;;;;;;;;;6.00;4.67;;;;;18.66;63.98;101047.91;146605;650;47016;-87
2023/11/10 12:06:40;;;;;;;;;5.75;5.00;;;;;18.63;64.01;101041.72;146607;576;47010;-85
2023/11/10 12:09:47;;;;;;;;;7.00;6.00;;;;;18.64;63.50;101014.59;146606;607;46024;-84
2023/11/10 12:12:46;;;;;;;;;7.00;6.25;;;;;18.59;64.06;101008.31;146606;675;47010;-86
2023/11/10 12:15:54;;;;;;;;;7.25;7.25;;;;;18.55;64.68;100993.34;146603;591;47028;-89
2023/11/10 12:19:07;;;;;;;;;8.75;7.00;;;;;18.53;65.00;100990.69;146606;693;46010;-87
2023/11/10 12:22:11;;;;;;;;;7.50;6.50;;;;;18.53;65.76;100960.91;146605;666;46012;-84
2023/11/10 12:25:06;;;;;;;;;8.00;6.00;;;;;18.51;67.05;100934.63;146606;653;47010;-85
2023/11/10 12:28:05;;;;;;;;;4.25;4.25;;;;;18.42;68.03;100948.44;146600;684;47012;-85
2023/11/10 12:31:05;;;;;;;;;11.50;10.00;;;;;18.33;69.34;100935.09;146607;570;46010;-84
2023/11/10 12:34:05;;;;;;;;;9.25;7.75;;;;;18.27;68.39;100921.84;146603;669;46016;-85
2023/11/10 12:37:20;;;;;;;;;9.50;8.50;;;;;18.22;69.93;100903.38;146608;566;46013;-83
2023/11/10 12:40:24;;;;;;;;;7.25;6.75;;;;;18.18;69.54;100880.50;146602;674;46012;-82
2023/11/10 12:43:19;;;;;;;;;8.75;7.00;;;;;18.10;70.07;100865.44;146603;730;46024;-79
2023/11/10 12:46:20;;;;;;;;;8.00;7.50;;;;;18.00;70.52;100843.34;146606;676;46012;-89
2023/11/10 12:49:23;;;;;;;;;9.00;8.00;;;;;17.95;71.15;100832.75;146605;593;46020;-84
2023/11/10 12:52:23;;;;;;;;;8.75;7.75;;;;;17.94;71.28;100798.59;146601;651;47016;-83
2023/11/10 12:55:28;;;;;;;;;11.00;9.00;;;;;17.97;70.44;100780.31;146606;569;46010;-82
2023/11/10 12:58:24;;;;;;;;;10.25;8.75;;;;;17.99;70.27;100795.25;146603;571;47012;-86
2023/11/10 13:01:22;;;;;;;;;11.50;10.00;;;;;18.06;70.22;100837.34;146604;586;47012;-84
2023/11/10 13:04:20;;;;;;;;;12.00;11.00;;;;;18.10;71.46;100842.72;146604;677;46016;-88
2023/11/10 13:07:25;;;;;;;;;9.00;9.00;;;;;18.11;70.81;100835.75;146603;644;47010;-84
2023/11/10 13:10:28;;;;;;;;;10.75;8.50;;;;;18.11;71.61;100833.13;146603;566;46016;-82
2023/11/10 13:13:25;;;;;;;;;11.25;10.00;;;;;18.16;70.47;100832.38;146608;691;46020;-83
2023/11/10 13:16:23;;;;;;;;;10.00;9.00;;;;;18.18;69.80;100835.88;146604;626;46012;-81
2023/11/10 13:19:23;;;;;;;;;9.00;8.00;;;;;18.19;69.15;100837.69;146604;588;46017;-83
2023/11/10 13:22:20;;;;;;;;;9.50;9.50;;;;;18.21;70.02;100812.34;146604;573;47013;-82
2023/11/10 13:25:29;;;;;;;;;9.75;8.75;;;;;18.20;69.78;100788.69;146605;618;46027;-84
2023/11/10 13:28:31;;;;;;;;;8.25;8.00;;;;;18.20;68.70;100778.19;146604;663;47016;-82
2023/11/10 13:31:41;;;;;;;;;7.00;7.00;;;;;18.14;69.30;100776.31;146607;569;46010;-87
2023/11/10 13:34:44;;;;;;;;;10.33;7.00;;;;;18.14;67.91;100781.56;146604;666;46014;-84
2023/11/10 13:37:44;;;;;;;;;10.00;7.33;;;;;18.15;68.27;100772.84;146607;585;47010;-84
2023/11/10 13:40:39;;;;;;;;;10.25;7.50;;;;;18.20;67.79;100772.94;146605;673;47012;-83
2023/11/10 13:43:43;;;;;;;;;8.75;8.75;;;;;18.19;67.30;100771.16;146606;586;46010;-86
2023/11/10 13:46:49;;;;;;;;;;;;;;;;;;;;;
2023/11/10 13:49:42;;;;;;;;;8.25;7.00;;;;;18.17;67.48;100744.91;146605;642;47010;-85
2023/11/10 13:52:47;;;;;;;;;6.00;6.00;;;;;18.19;68.05;100739.66;146599;571;47012;-82
2023/11/10 13:55:47;;;;;;;;;7.00;7.00;;;;;18.21;67.26;100711.72;146607;673;46020;-84
2023/11/10 13:58:43;;;;;;;;;9.00;7.00;;;;;18.19;67.81;100688.09;146605;687;46017;-81
2023/11/10 14:01:49;;;;;;;;;7.00;6.67;;;;;18.18;66.99;100688.91;146605;569;47010;-86
2023/11/10 14:04:49;;;;;;;;;4.75;4.75;;;;;18.22;67.72;100677.66;146602;588;46917;-82
2023/11/10 14:07:51;;;;;;;;;5.00;5.00;;;;;18.21;67.08;100664.47;146603;585;47021;-89
2023/11/10 14:10:47;;;;;;;;;8.75;6.75;;;;;18.23;67.50;100671.53;146606;570;46016;-86
2023/11/10 14:13:43;;;;;;;;;6.25;5.50;;;;;18.22;66.67;100682.91;146606;654;46012;-82
2023/11/10 14:16:41;;;;;;;;;6.00;5.67;;;;;18.28;66.85;100679.47;146604;622;47016;-83
2023/11/10 14:19:37;;;;;;;;;6.00;6.00;;;;;18.29;67.25;100681.28;146608;587;46010;-82
2023/11/10 14:22:39;;;;;;;;;7.00;5.33;;;;;18.28;66.43;100682.09;146600;620;47917;-80
2023/11/10 14:25:35;;;;;;;;;6.00;5.75;;;;;18.31;65.84;100689.16;146607;639;46020;-83
2023/11/10 14:28:46;;;;;;;;;6.33;6.33;;;;;18.27;65.97;100705.72;146603;590;47013;-84
2023/11/10 14:31:53;;;;;;;;;9.00;8.25;;;;;18.28;65.79;100720.59;146602;599;46020;-87
2023/11/10 14:34:58;;;;;;;;;;;;;;;;;;;;;
2023/11/10 14:37:58;;;;;;;;;9.25;9.25;;;;;18.27;66.13;100724.09;146603;629;46021;-85
2023/11/10 14:41:06;;;;;;;;;9.00;8.00;;;;;18.27;66.14;100714.47;146604;598;46016;-85
2023/11/10 14:44:05;;;;;;;;;10.50;9.00;;;;;18.25;66.31;100713.53;146605;576;46021;-85
2023/11/10 14:47:11;;;;;;;;;9.00;9.00;;;;;18.24;66.62;100717.91;146601;664;47016;-90